Hlavní strana
METAR-TAF:

METAR-TAF

Letiště :

Tozeur, Tunisko

zeměpisná šířka: 33-55N, zeměpisná délka: 008-06E, výška: 87 m

Aktuální stav počasí

Zpráva byla vytvořena před 45 minutami, v 02:00 UTC
Severozápadní vítr 4 kt
Teplota 11°C
Vlhkost vzduchu 82%
Tlak 1014 hPa

METAR: DTTZ 040200Z AUTO 32004KT NCD 11/08 Q1014

Čas: 03:45 (02:45 UTC)

Předpověď počasí

Zpráva byla vytvořena před 3 hodinami a 45 minutami, v 23:00 UTC
Předpověď platná od 04 v 00 UTC do 04 v 24 UTC
Jihovýchodní vítr 4 kt
Viditelnost: 8000 m
Polojasno ve výšce 3300 ft
Změna
od 04 v 01 UTC do 04 v 03 UTC
vítr z různých směrů 3 kt
Viditelnost 10 km a více
Polojasno ve výšce 2600 ft
Změna
od 04 v 08 UTC do 04 v 10 UTC
Jihojihozápadní vítr 5 kt

TAF: DTTZ 032300Z 0400/0424 13004KT 8000 SCT033 BECMG 0401/0403 VRB03KT 9999 SCT026 BECMG 0408/0410 20005KT

Stav a předpovědi počasí z více než 4 000 letišť (zprávy METAR a TAF).

Červené a žluté tečky na mapě představují dostupné meteorologické stanice.

Když kurzor umístíte na tečku, zobrazí se název stanice.

Pak kliknutím zobrazíte stav a předpověď počasí.

Chcete-li změnit mapu, kliknutím na zelené tlačítko se znaménkem +mapu přiblížíte, kliknutím na zelené tlačítko se znaménkem – mapu oddálíte a kliknutím na zelené šipky přejdete na sousední mapy.


METAR-TAF: